createdAt,value
2022-11-01T00:01:53.851Z,4.65
2022-11-01T00:04:20.776Z,3.92
2022-11-01T00:06:48.421Z,4.97
2022-11-01T00:09:15.449Z,3.88
2022-11-01T00:11:42.395Z,4.10
2022-11-01T00:14:13.094Z,4.15
2022-11-01T00:16:40.333Z,4.40
2022-11-01T00:19:07.146Z,4.10
2022-11-01T00:21:33.911Z,4.20
2022-11-01T00:24:01.138Z,4.60
2022-11-01T00:26:27.925Z,4.68
2022-11-01T00:28:55.448Z,3.45
2022-11-01T00:31:22.497Z,4.10
2022-11-01T00:33:49.341Z,3.88
2022-11-01T00:36:16.361Z,3.80
2022-11-01T00:38:43.330Z,3.70
2022-11-01T00:41:10.282Z,4.32
2022-11-01T00:43:37.469Z,3.90
2022-11-01T00:46:05.261Z,3.75
2022-11-01T00:48:32.176Z,3.78
2022-11-01T00:50:58.938Z,4.18
2022-11-01T00:53:25.918Z,4.63
2022-11-01T00:55:52.736Z,4.05
2022-11-01T00:58:20.230Z,3.03
2022-11-01T01:00:48.190Z,3.25
2022-11-01T01:03:15.195Z,3.33
2022-11-01T01:05:42.214Z,3.67
2022-11-01T01:08:09.074Z,3.92
2022-11-01T01:10:36.251Z,3.42
2022-11-01T01:13:03.902Z,3.50
2022-11-01T01:15:31.250Z,4.05
2022-11-01T01:17:58.242Z,4.18
2022-11-01T01:20:25.074Z,3.58
2022-11-01T01:22:52.067Z,3.08
2022-11-01T01:25:20.870Z,3.58
2022-11-01T01:27:47.697Z,3.80
2022-11-01T01:30:15.156Z,3.88
2022-11-01T01:32:42.717Z,2.72
2022-11-01T01:35:09.965Z,3.65
2022-11-01T01:37:36.995Z,3.28
2022-11-01T01:40:05.008Z,2.90
2022-11-01T01:42:33.330Z,2.67
2022-11-01T01:45:00.059Z,3.47
2022-11-01T01:47:26.763Z,3.20
2022-11-01T01:50:16.486Z,3.97
2022-11-01T01:53:04.354Z,2.88
2022-11-01T01:55:40.308Z,3.63
2022-11-01T01:58:10.809Z,3.35
2022-11-01T02:00:38.511Z,3.22
2022-11-01T02:03:06.671Z,3.05
2022-11-01T02:05:54.958Z,3.10
2022-11-01T02:08:27.932Z,2.45
2022-11-01T02:10:58.083Z,3.03
2022-11-01T02:13:24.929Z,3.05
2022-11-01T02:16:10.655Z,3.28
2022-11-01T02:19:03.792Z,3.65
2022-11-01T02:21:30.600Z,3.78
2022-11-01T02:24:22.485Z,3.08
2022-11-01T02:27:11.568Z,3.55
2022-11-01T02:30:15.310Z,2.83
2022-11-01T02:33:07.810Z,3.10
2022-11-01T02:35:43.678Z,2.55
2022-11-01T02:38:27.585Z,3.28
2022-11-01T02:41:13.129Z,3.35
2022-11-01T02:43:49.210Z,2.78
2022-11-01T02:46:37.603Z,2.72
2022-11-01T02:49:05.459Z,3.03
2022-11-01T02:51:33.425Z,2.83
2022-11-01T02:54:08.456Z,3.05
2022-11-01T02:56:37.154Z,2.92
2022-11-01T02:59:04.408Z,3.08
2022-11-01T03:01:34.609Z,2.55
2022-11-01T03:04:02.773Z,2.22
2022-11-01T03:06:39.885Z,3.08
2022-11-01T03:09:10.621Z,2.90
2022-11-01T03:12:00.042Z,2.97
2022-11-01T03:14:57.346Z,2.80
2022-11-01T03:17:33.265Z,2.47
2022-11-01T03:20:06.832Z,3.00
2022-11-01T03:22:39.506Z,2.63
2022-11-01T03:25:28.646Z,2.85
2022-11-01T03:27:58.616Z,3.63
2022-11-01T03:30:25.834Z,3.15
2022-11-01T03:32:56.040Z,3.20
2022-11-01T03:35:29.959Z,3.25
2022-11-01T03:38:06.662Z,2.60
2022-11-01T03:40:35.695Z,2.78
2022-11-01T03:43:06.591Z,2.92
2022-11-01T03:45:38.281Z,2.67
2022-11-01T03:48:05.968Z,2.90
2022-11-01T03:50:33.273Z,2.13
2022-11-01T03:53:00.257Z,2.67
2022-11-01T03:55:27.070Z,2.45
2022-11-01T03:57:56.082Z,2.45
2022-11-01T04:00:31.509Z,2.60
2022-11-01T04:02:59.358Z,2.10
2022-11-01T04:05:28.477Z,2.58
2022-11-01T04:07:56.115Z,2.28
2022-11-01T04:10:25.038Z,2.63
2022-11-01T04:12:52.544Z,2.13
2022-11-01T04:15:39.751Z,3.53
2022-11-01T04:18:36.841Z,2.28
2022-11-01T04:21:12.748Z,2.70
2022-11-01T04:23:39.798Z,2.40
2022-11-01T04:26:07.376Z,2.20
2022-11-01T04:28:34.295Z,2.03
2022-11-01T04:31:01.353Z,1.92
2022-11-01T04:33:28.141Z,2.42
2022-11-01T04:35:55.055Z,2.42
2022-11-01T04:38:21.840Z,1.55
2022-11-01T04:40:48.982Z,2.78
2022-11-01T04:43:16.082Z,1.73
2022-11-01T04:45:42.861Z,2.63
2022-11-01T04:48:13.719Z,2.10
2022-11-01T04:50:42.031Z,2.42
2022-11-01T04:53:09.601Z,1.70
2022-11-01T04:55:36.680Z,2.35
2022-11-01T04:58:04.525Z,2.40
2022-11-01T05:00:33.168Z,1.75
2022-11-01T05:03:11.553Z,2.17
2022-11-01T05:05:39.231Z,2.72
2022-11-01T05:08:10.045Z,2.35
2022-11-01T05:10:39.406Z,2.15
2022-11-01T05:13:06.657Z,2.03
2022-11-01T05:15:36.890Z,2.25
2022-11-01T05:18:06.723Z,1.73
2022-11-01T05:20:33.597Z,1.90
2022-11-01T05:23:01.851Z,2.20
2022-11-01T05:25:31.430Z,1.77
2022-11-01T05:28:10.717Z,1.40
2022-11-01T05:30:37.894Z,2.00
2022-11-01T05:33:06.685Z,1.50
2022-11-01T05:35:34.980Z,2.15
2022-11-01T05:38:03.771Z,1.50
2022-11-01T05:40:31.827Z,2.55
2022-11-01T05:42:59.056Z,1.70
2022-11-01T05:45:26.245Z,1.75
2022-11-01T05:47:53.021Z,1.92
2022-11-01T05:50:19.985Z,1.55
2022-11-01T05:52:46.876Z,1.80
2022-11-01T05:55:13.755Z,1.38
2022-11-01T05:57:40.705Z,1.27
2022-11-01T06:00:08.367Z,1.75
2022-11-01T06:02:35.231Z,1.50
2022-11-01T06:05:03.241Z,1.13
2022-11-01T06:07:30.300Z,1.30
2022-11-01T06:09:57.154Z,1.30
2022-11-01T06:12:24.926Z,1.35
2022-11-01T06:14:52.256Z,1.38
2022-11-01T06:17:19.447Z,1.10
2022-11-01T06:19:46.307Z,1.08
2022-11-01T06:22:13.199Z,1.20
2022-11-01T06:24:40.146Z,1.20
2022-11-01T06:27:11.456Z,1.30
2022-11-01T06:29:39.262Z,0.98
2022-11-01T06:32:06.408Z,0.82
2022-11-01T06:34:33.490Z,0.98
2022-11-01T06:37:00.290Z,0.40
2022-11-01T06:39:27.411Z,0.50
2022-11-01T06:41:54.797Z,0.80
2022-11-01T06:44:22.212Z,1.00
2022-11-01T06:46:49.122Z,0.40
2022-11-01T06:49:18.949Z,0.30
2022-11-01T06:51:47.009Z,0.40
2022-11-01T06:54:14.137Z,0.52
2022-11-01T06:56:40.909Z,0.50
2022-11-01T06:59:08.847Z,0.40
2022-11-01T07:01:35.782Z,0.30
2022-11-01T07:04:02.869Z,0.40
2022-11-01T07:06:30.947Z,0.82
2022-11-01T07:08:59.607Z,0.65
2022-11-01T07:11:31.214Z,0.40
2022-11-01T07:13:59.314Z,0.30
2022-11-01T07:16:26.907Z,0.40
2022-11-01T07:18:54.355Z,0.40
2022-11-01T07:21:21.331Z,0.20
2022-11-01T07:23:48.139Z,0.10
2022-11-01T07:26:14.988Z,0.47
2022-11-01T07:28:42.108Z,0.28
2022-11-01T07:31:08.967Z,0.30
2022-11-01T07:33:35.942Z,0.25
2022-11-01T07:36:03.470Z,0.20
2022-11-01T07:38:30.802Z,0.15
2022-11-01T07:40:57.864Z,0.30
2022-11-01T07:43:24.703Z,0.22
2022-11-01T07:45:51.650Z,0.28
2022-11-01T07:48:19.537Z,0.30
2022-11-01T07:50:46.899Z,0.70
2022-11-01T07:53:19.066Z,0.30
2022-11-01T07:55:46.674Z,0.50
2022-11-01T07:58:14.735Z,0.13
2022-11-01T08:00:42.442Z,0.22
2022-11-01T08:03:17.727Z,0.40
2022-11-01T08:05:46.025Z,0.75
2022-11-01T08:08:13.886Z,0.22
2022-11-01T08:10:42.364Z,0.65
2022-11-01T08:13:18.776Z,0.65
2022-11-01T08:15:46.804Z,0.40
2022-11-01T08:18:14.671Z,0.45
2022-11-01T08:20:41.539Z,0.35
2022-11-01T08:23:09.586Z,0.38
2022-11-01T08:25:36.745Z,0.50
2022-11-01T08:28:12.916Z,0.10
2022-11-01T08:30:41.056Z,0.20
2022-11-01T08:33:08.015Z,1.25
2022-11-01T08:35:35.566Z,0.40
2022-11-01T08:38:05.515Z,0.50
2022-11-01T08:40:33.793Z,1.10
2022-11-01T08:43:01.628Z,0.47
2022-11-01T08:45:29.054Z,0.60
2022-11-01T08:48:01.009Z,0.88
2022-11-01T08:50:28.098Z,0.88
2022-11-01T08:52:55.182Z,0.77
2022-11-01T08:55:23.003Z,1.65
2022-11-01T08:57:49.963Z,0.73
2022-11-01T09:00:17.614Z,0.93
2022-11-01T09:02:44.554Z,1.05
2022-11-01T09:05:11.613Z,1.10
2022-11-01T09:07:38.696Z,0.55
2022-11-01T09:10:06.811Z,1.23
2022-11-01T09:12:33.718Z,0.70
2022-11-01T09:15:00.570Z,1.40
2022-11-01T09:17:27.546Z,2.70
2022-11-01T09:19:54.382Z,1.10
2022-11-01T09:22:21.225Z,0.85
2022-11-01T09:24:48.066Z,1.30
2022-11-01T09:27:14.892Z,1.00
2022-11-01T09:29:43.343Z,0.50
2022-11-01T09:32:12.191Z,1.02
2022-11-01T09:34:38.978Z,1.35
2022-11-01T09:37:05.742Z,0.32
2022-11-01T09:39:32.832Z,1.42
2022-11-01T09:42:03.387Z,0.80
2022-11-01T09:44:45.402Z,1.60
2022-11-01T09:47:22.563Z,1.15
2022-11-01T09:50:01.187Z,0.77
2022-11-01T09:52:27.975Z,1.05
2022-11-01T09:54:54.783Z,1.35
2022-11-01T09:57:30.895Z,0.88
2022-11-01T10:00:07.811Z,0.60
2022-11-01T10:06:00.766Z,0.88
2022-11-01T10:08:42.464Z,1.88
2022-11-01T10:11:29.263Z,1.08
2022-11-01T10:14:32.966Z,0.70
2022-11-01T10:17:14.891Z,0.60
2022-11-01T10:19:48.533Z,1.02
2022-11-01T10:22:32.175Z,1.50
2022-11-01T10:25:04.493Z,1.35
2022-11-01T10:27:47.135Z,0.77
2022-11-01T10:30:16.873Z,1.25
2022-11-01T10:32:54.534Z,0.35
2022-11-01T10:35:27.414Z,1.00
2022-11-01T10:41:43.221Z,0.73
2022-11-01T10:44:27.677Z,0.88
2022-11-01T10:46:56.546Z,0.63
2022-11-01T10:49:53.045Z,1.00
2022-11-01T10:52:22.551Z,0.85
2022-11-01T10:54:51.435Z,0.95
2022-11-01T10:57:30.716Z,0.75
2022-11-01T11:00:01.252Z,1.35
2022-11-01T11:02:51.023Z,1.25
2022-11-01T11:05:18.902Z,1.38
2022-11-01T11:07:45.879Z,1.75
2022-11-01T11:10:24.447Z,0.80
2022-11-01T11:12:55.693Z,1.63
2022-11-01T11:15:46.339Z,0.68
2022-11-01T11:18:39.575Z,1.08
2022-11-01T11:21:09.390Z,0.68
2022-11-01T11:23:44.891Z,1.73
2022-11-01T11:26:18.653Z,1.05
2022-11-01T11:28:55.133Z,0.63
2022-11-01T11:31:28.854Z,1.75
2022-11-01T11:34:19.810Z,0.35
2022-11-01T11:36:49.968Z,1.50
2022-11-01T11:39:30.267Z,0.90
2022-11-01T11:42:14.093Z,1.23
2022-11-01T11:44:52.043Z,0.97
2022-11-01T11:47:36.402Z,1.35
2022-11-01T11:50:19.580Z,0.60
2022-11-01T11:52:49.173Z,1.70
2022-11-01T11:55:55.532Z,0.47
2022-11-01T11:58:25.578Z,0.52
2022-11-01T12:00:58.186Z,0.93
2022-11-01T12:03:25.662Z,1.10
2022-11-01T12:06:08.560Z,1.00
2022-11-01T12:08:46.761Z,0.85
2022-11-01T12:11:14.351Z,0.45
2022-11-01T12:13:45.339Z,0.95
2022-11-01T12:16:18.990Z,0.93
2022-11-01T12:18:57.535Z,1.23
2022-11-01T12:21:34.674Z,0.68
2022-11-01T12:24:05.468Z,1.00
2022-11-01T12:26:36.301Z,0.63
2022-11-01T12:29:35.054Z,0.38
2022-11-01T12:32:12.252Z,0.80
2022-11-01T12:34:42.738Z,0.70
2022-11-01T12:37:25.166Z,1.02
2022-11-01T12:39:57.123Z,1.15
2022-11-01T12:42:40.670Z,1.13
2022-11-01T12:45:29.990Z,0.68
2022-11-01T12:48:05.987Z,0.50
2022-11-01T12:50:32.877Z,0.60
2022-11-01T12:53:11.095Z,0.55
2022-11-01T12:55:40.625Z,0.40
2022-11-01T12:58:20.108Z,1.42
2022-11-01T13:01:05.207Z,0.68
2022-11-01T13:03:47.768Z,0.40
2022-11-01T13:06:33.238Z,0.82
2022-11-01T13:09:10.992Z,1.02
2022-11-01T13:12:00.497Z,0.32
2022-11-01T13:14:55.272Z,1.05
2022-11-01T13:17:45.474Z,1.08
2022-11-01T13:20:33.618Z,0.50
2022-11-01T13:23:23.663Z,0.85
2022-11-01T13:26:16.230Z,0.80
2022-11-01T13:28:56.454Z,1.20
2022-11-01T13:31:35.571Z,0.60
2022-11-01T13:34:08.279Z,1.10
2022-11-01T13:36:58.535Z,0.45
2022-11-01T13:39:38.930Z,0.52
2022-11-01T13:42:22.183Z,0.55
2022-11-01T13:45:45.003Z,0.50
2022-11-01T13:48:11.695Z,0.93
2022-11-01T13:50:47.007Z,0.70
2022-11-01T13:53:39.489Z,0.90
2022-11-01T13:56:17.487Z,1.00
2022-11-01T13:58:44.385Z,0.32
2022-11-01T14:01:36.215Z,0.10
2022-11-01T14:04:12.268Z,0.40
2022-11-01T14:06:41.887Z,1.25
2022-11-01T14:09:23.960Z,1.33
2022-11-01T14:11:55.099Z,1.17
2022-11-01T14:14:31.154Z,0.70
2022-11-01T14:17:16.587Z,1.15
2022-11-01T14:19:44.987Z,0.80
2022-11-01T14:22:27.272Z,0.43
2022-11-01T14:24:55.767Z,1.10
2022-11-01T14:27:36.619Z,1.20
2022-11-01T14:30:32.026Z,0.65
2022-11-01T14:33:04.128Z,0.50
2022-11-01T14:35:36.615Z,0.40
2022-11-01T14:38:20.256Z,0.40
2022-11-01T14:40:52.266Z,0.77
2022-11-01T14:43:31.064Z,1.20
2022-11-01T14:46:03.139Z,0.60
2022-11-01T14:48:46.400Z,0.80
2022-11-01T14:51:35.642Z,0.38
2022-11-01T14:54:17.514Z,1.13
2022-11-01T14:56:50.331Z,0.93
2022-11-01T14:59:23.521Z,0.73
2022-11-01T15:01:58.160Z,0.65
2022-11-01T15:04:39.820Z,0.52
2022-11-01T15:07:30.721Z,0.60
2022-11-01T15:10:14.650Z,0.73
2022-11-01T15:12:47.850Z,1.35
2022-11-01T15:15:27.989Z,0.50
2022-11-01T15:17:59.221Z,0.70
2022-11-01T15:20:30.106Z,0.63
2022-11-01T15:22:58.982Z,0.63
2022-11-01T15:25:26.914Z,0.57
2022-11-01T15:27:55.882Z,0.65
2022-11-01T15:30:33.681Z,1.00
2022-11-01T15:33:19.201Z,0.95
2022-11-01T15:35:59.392Z,0.60
2022-11-01T15:38:27.267Z,0.30
2022-11-01T15:40:54.545Z,0.52
2022-11-01T15:43:23.933Z,0.40
2022-11-01T15:46:00.234Z,0.40
2022-11-01T15:48:35.509Z,1.10
2022-11-01T15:51:06.206Z,0.55
2022-11-01T15:53:36.842Z,0.50
2022-11-01T15:56:30.408Z,1.23
2022-11-01T15:59:00.761Z,0.88
2022-11-01T16:01:27.797Z,0.40
2022-11-01T16:04:00.811Z,0.50
2022-11-01T16:06:45.975Z,0.43
2022-11-01T16:09:15.815Z,0.88
2022-11-01T16:11:43.660Z,0.85
2022-11-01T16:14:38.194Z,0.98
2022-11-01T16:17:24.715Z,0.47
2022-11-01T16:19:52.807Z,0.88
2022-11-01T16:22:46.798Z,0.90
2022-11-01T16:25:21.157Z,0.50
2022-11-01T16:28:04.362Z,0.95
2022-11-01T16:30:56.686Z,0.35
2022-11-01T16:33:35.433Z,0.40
2022-11-01T16:36:20.513Z,0.70
2022-11-01T16:38:54.473Z,0.70
2022-11-01T16:41:22.369Z,0.63
2022-11-01T16:43:53.571Z,0.93
2022-11-01T16:46:21.741Z,0.88
2022-11-01T16:49:15.478Z,0.95
2022-11-01T16:51:42.504Z,0.60
2022-11-01T16:54:10.431Z,0.65
2022-11-01T16:56:48.074Z,0.70
2022-11-01T16:59:27.085Z,0.95
2022-11-01T17:01:57.531Z,0.65
2022-11-01T17:04:26.918Z,0.40
2022-11-01T17:06:55.243Z,1.00
2022-11-01T17:09:25.335Z,0.30
2022-11-01T17:11:53.833Z,0.47
2022-11-01T17:14:21.820Z,0.82
2022-11-01T17:16:51.265Z,0.35
2022-11-01T17:19:41.123Z,0.45
2022-11-01T17:22:20.670Z,0.28
2022-11-01T17:24:48.966Z,0.57
2022-11-01T17:27:16.366Z,0.45
2022-11-01T17:29:43.182Z,0.70
2022-11-01T17:32:11.407Z,0.60
2022-11-01T17:34:39.175Z,0.47
2022-11-01T17:37:06.469Z,1.05
2022-11-01T17:39:33.431Z,0.13
2022-11-01T17:42:00.337Z,0.75
2022-11-01T17:44:27.212Z,0.65
2022-11-01T17:46:54.031Z,0.40
2022-11-01T17:49:23.647Z,0.68
2022-11-01T17:51:54.688Z,0.80
2022-11-01T17:54:23.000Z,0.85
2022-11-01T17:56:51.156Z,0.52
2022-11-01T17:59:18.329Z,0.95
2022-11-01T18:01:45.277Z,0.35
2022-11-01T18:04:12.309Z,0.70
2022-11-01T18:06:40.661Z,0.50
2022-11-01T18:09:20.561Z,0.50
2022-11-01T18:12:07.621Z,0.43
2022-11-01T18:15:08.606Z,0.68
2022-11-01T18:17:59.820Z,1.13
2022-11-01T18:21:06.886Z,0.45
2022-11-01T18:26:01.194Z,0.70
2022-11-01T18:28:31.805Z,0.60
2022-11-01T18:31:11.202Z,0.95
2022-11-01T18:33:44.843Z,0.70
2022-11-01T18:36:28.548Z,0.40
2022-11-01T18:39:13.517Z,0.50
2022-11-01T18:41:40.363Z,0.45
2022-11-01T18:44:11.505Z,0.40
2022-11-01T18:47:04.803Z,0.40
2022-11-01T18:49:31.607Z,0.75
2022-11-01T18:51:58.436Z,0.77
2022-11-01T18:54:28.690Z,0.60
2022-11-01T18:57:10.518Z,0.30
2022-11-01T18:59:39.208Z,0.40
2022-11-01T19:02:19.348Z,0.38
2022-11-01T19:04:47.826Z,0.90
2022-11-01T19:07:19.002Z,0.80
2022-11-01T19:10:16.287Z,0.40
2022-11-01T19:12:45.759Z,0.60
2022-11-01T19:15:22.981Z,0.90
2022-11-01T19:17:59.403Z,0.55
2022-11-01T19:20:32.361Z,0.60
2022-11-01T19:23:03.942Z,0.68
2022-11-01T19:25:32.472Z,0.57
2022-11-01T19:28:02.813Z,0.50
2022-11-01T19:30:31.737Z,0.50
2022-11-01T19:33:17.377Z,1.02
2022-11-01T19:35:44.789Z,0.40
2022-11-01T19:38:15.414Z,0.73
2022-11-01T19:40:44.000Z,0.65
2022-11-01T19:43:21.515Z,1.65
2022-11-01T19:45:53.604Z,0.50
2022-11-01T19:48:27.259Z,0.82
2022-11-01T19:50:54.345Z,1.57
2022-11-01T19:53:33.496Z,0.70
2022-11-01T19:56:12.556Z,0.40
2022-11-01T19:58:53.700Z,0.70
2022-11-01T20:01:31.875Z,0.50
2022-11-01T20:04:20.947Z,1.13
2022-11-01T20:06:57.675Z,1.05
2022-11-01T20:09:28.130Z,0.40
2022-11-01T20:11:56.004Z,0.65
2022-11-01T20:14:22.961Z,1.17
2022-11-01T20:16:50.104Z,0.60
2022-11-01T20:19:17.953Z,0.63
2022-11-01T20:21:45.429Z,1.08
2022-11-01T20:24:12.786Z,0.70
2022-11-01T20:26:40.068Z,0.95
2022-11-01T20:29:06.828Z,1.38
2022-11-01T20:31:33.691Z,0.95
2022-11-01T20:34:00.542Z,0.73
2022-11-01T20:36:28.220Z,0.52
2022-11-01T20:38:55.168Z,0.80
2022-11-01T20:41:22.495Z,0.70
2022-11-01T20:43:49.677Z,2.20
2022-11-01T20:46:16.901Z,0.80
2022-11-01T20:48:45.342Z,0.50
2022-11-01T20:51:13.455Z,0.35
2022-11-01T20:53:41.297Z,1.13
2022-11-01T20:56:09.114Z,1.33
2022-11-01T20:58:41.608Z,0.47
2022-11-01T21:01:16.438Z,0.70
2022-11-01T21:03:44.237Z,0.88
2022-11-01T21:06:13.428Z,0.82
2022-11-01T21:08:40.730Z,0.75
2022-11-01T21:11:19.786Z,0.82
2022-11-01T21:13:46.940Z,0.70
2022-11-01T21:16:24.524Z,0.88
2022-11-01T21:18:54.928Z,0.73
2022-11-01T21:21:32.486Z,0.57
2022-11-01T21:24:00.888Z,0.60
2022-11-01T21:26:33.788Z,0.60
2022-11-01T21:29:15.552Z,0.95
2022-11-01T21:31:43.067Z,1.48
2022-11-01T21:34:10.127Z,0.65
2022-11-01T21:36:46.747Z,0.73
2022-11-01T21:39:22.272Z,0.77
2022-11-01T21:41:51.621Z,0.82
2022-11-01T21:44:23.737Z,0.85
2022-11-01T21:47:11.929Z,0.80
2022-11-01T21:49:38.850Z,1.00
2022-11-01T21:52:07.948Z,0.90
2022-11-01T21:54:38.187Z,1.17
2022-11-01T21:57:07.308Z,0.82
2022-11-01T21:59:34.653Z,0.55
2022-11-01T22:02:03.816Z,0.45
2022-11-01T22:04:31.651Z,1.20
2022-11-01T22:07:00.740Z,0.47
2022-11-01T22:09:27.605Z,0.45
2022-11-01T22:11:55.153Z,0.63
2022-11-01T22:14:22.260Z,1.00
2022-11-01T22:16:49.041Z,0.80
2022-11-01T22:19:16.154Z,1.55
2022-11-01T22:21:42.963Z,1.02
2022-11-01T22:24:10.215Z,0.52
2022-11-01T22:26:37.036Z,1.42
2022-11-01T22:29:04.069Z,1.17
2022-11-01T22:31:31.200Z,1.67
2022-11-01T22:33:58.978Z,0.70
2022-11-01T22:36:28.453Z,0.60
2022-11-01T22:38:56.884Z,1.15
2022-11-01T22:41:32.777Z,0.60
2022-11-01T22:44:04.368Z,0.73
2022-11-01T22:46:56.782Z,1.30
2022-11-01T22:49:33.782Z,0.73
2022-11-01T22:52:16.487Z,1.20
2022-11-01T22:54:49.535Z,0.90
2022-11-01T22:57:21.427Z,1.48
2022-11-01T22:59:52.403Z,1.30
2022-11-01T23:02:34.430Z,0.60
2022-11-01T23:05:33.827Z,1.83
2022-11-01T23:08:12.950Z,0.60
2022-11-01T23:10:39.920Z,0.60
2022-11-01T23:13:34.878Z,0.30
2022-11-01T23:16:17.993Z,0.60
2022-11-01T23:18:45.095Z,1.65
2022-11-01T23:21:11.918Z,0.50
2022-11-01T23:23:44.513Z,0.77
2022-11-01T23:26:12.533Z,0.35
2022-11-01T23:28:59.862Z,0.45
2022-11-01T23:31:28.489Z,0.65
2022-11-01T23:33:55.765Z,0.82
2022-11-01T23:36:35.378Z,0.40
2022-11-01T23:39:13.395Z,1.00
2022-11-01T23:41:47.265Z,0.70
2022-11-01T23:44:34.470Z,0.70
2022-11-01T23:47:13.745Z,0.68
2022-11-01T23:49:41.220Z,0.40
2022-11-01T23:52:23.217Z,1.38
2022-11-01T23:54:50.194Z,0.50
2022-11-01T23:57:20.391Z,0.75
2022-11-01T23:59:51.605Z,1.15
